Time;durP1;ratioP1;P1;durP2;ratioP2;P2;SDS_P1;SDS_P2;PMS_P1;PMS_P2;Temp;Humidity;BMP_temperature;BMP_pressure;BME280_temperature;BME280_humidity;BME280_pressure;Samples;Min_cycle;Max_cycle;Signal;HPM_P1;HPM_P2
2024/02/26 00:02:27;;;;;;;3.50;2.40;;;;;;;;;;5079438;28;20048;-58
2024/02/26 00:04:56;;;;;;;5.20;3.00;;;;;;;;;;5080774;28;20459;-62
2024/02/26 00:07:24;;;;;;;3.03;2.35;;;;;;;;;;5079701;28;20453;-61
2024/02/26 00:09:53;;;;;;;4.15;2.30;;;;;;;;;;5077282;28;20455;-60
2024/02/26 00:12:21;;;;;;;3.90;2.45;;;;;;;;;;5080090;28;20127;-59
2024/02/26 00:14:49;;;;;;;2.95;2.53;;;;;;;;;;5081179;28;20047;-62
2024/02/26 00:17:18;;;;;;;2.92;2.40;;;;;;;;;;5083371;28;20105;-59
2024/02/26 00:19:48;;;;;;;3.13;2.22;;;;;;;;;;5080671;28;20535;-60
2024/02/26 00:22:16;;;;;;;7.13;2.58;;;;;;;;;;5083667;28;20058;-58
2024/02/26 00:24:45;;;;;;;3.17;2.25;;;;;;;;;;5088521;28;20044;-59
2024/02/26 00:27:13;;;;;;;4.25;2.22;;;;;;;;;;5084509;28;20451;-59
2024/02/26 00:29:41;;;;;;;2.95;2.45;;;;;;;;;;5083941;28;20048;-62
2024/02/26 00:32:10;;;;;;;3.50;2.20;;;;;;;;;;5084095;28;20048;-61
2024/02/26 00:34:38;;;;;;;2.15;1.77;;;;;;;;;;5080799;28;20192;-64
2024/02/26 00:37:08;;;;;;;3.78;2.58;;;;;;;;;;5082247;28;20043;-59
2024/02/26 00:39:36;;;;;;;3.42;2.50;;;;;;;;;;5083917;28;20048;-59
2024/02/26 00:42:05;;;;;;;2.13;1.90;;;;;;;;;;5084752;28;20075;-60
2024/02/26 00:44:33;;;;;;;3.88;2.40;;;;;;;;;;5083011;28;20048;-59
2024/02/26 00:47:02;;;;;;;3.50;2.58;;;;;;;;;;5084071;28;20040;-59
2024/02/26 00:49:30;;;;;;;3.85;2.45;;;;;;;;;;5082468;28;20044;-58
2024/02/26 00:51:59;;;;;;;3.22;2.28;;;;;;;;;;5079080;28;20565;-62
2024/02/26 00:54:28;;;;;;;3.78;2.45;;;;;;;;;;5077963;28;20052;-60
2024/02/26 00:56:57;;;;;;;3.28;2.60;;;;;;;;;;5082951;28;20432;-62
2024/02/26 00:59:25;;;;;;;3.58;2.42;;;;;;;;;;5074720;28;20044;-60
2024/02/26 01:01:54;;;;;;;3.83;2.55;;;;;;;;;;5078214;28;20118;-61
2024/02/26 01:04:22;;;;;;;3.58;2.17;;;;;;;;;;5079758;28;20112;-59
2024/02/26 01:06:50;;;;;;;2.38;2.03;;;;;;;;;;5076811;28;20052;-61
2024/02/26 01:09:19;;;;;;;5.20;2.28;;;;;;;;;;5077253;28;20509;-59
2024/02/26 01:11:49;;;;;;;4.28;2.08;;;;;;;;;;5075036;28;20048;-58
2024/02/26 01:14:17;;;;;;;5.10;2.30;;;;;;;;;;5079764;28;20078;-59
2024/02/26 01:16:46;;;;;;;3.17;2.30;;;;;;;;;;5080403;28;20064;-60
2024/02/26 01:19:15;;;;;;;4.57;2.58;;;;;;;;;;5087125;28;20064;-60
2024/02/26 01:21:43;;;;;;;5.35;2.60;;;;;;;;;;5084575;28;20032;-59
2024/02/26 01:24:12;;;;;;;4.53;3.08;;;;;;;;;;5081330;28;20044;-60
2024/02/26 01:26:40;;;;;;;4.07;2.67;;;;;;;;;;5083053;28;20549;-59
2024/02/26 01:29:10;;;;;;;3.17;2.25;;;;;;;;;;5081994;28;20051;-60
2024/02/26 01:31:38;;;;;;;3.28;2.20;;;;;;;;;;5079401;28;20131;-63
2024/02/26 01:34:07;;;;;;;2.83;2.20;;;;;;;;;;5078036;28;20597;-61
2024/02/26 01:36:35;;;;;;;3.17;2.30;;;;;;;;;;5079423;28;20047;-60
2024/02/26 01:39:04;;;;;;;4.75;2.47;;;;;;;;;;5081425;28;20121;-61
2024/02/26 01:41:32;;;;;;;3.92;2.15;;;;;;;;;;5081963;28;20056;-63
2024/02/26 01:44:01;;;;;;;2.65;2.10;;;;;;;;;;5081492;28;20048;-62
2024/02/26 01:46:31;;;;;;;2.95;2.13;;;;;;;;;;5082430;28;20048;-61
2024/02/26 01:49:00;;;;;;;4.45;2.33;;;;;;;;;;5080799;28;20647;-63
2024/02/26 01:51:28;;;;;;;3.58;2.42;;;;;;;;;;5081599;28;20063;-59
2024/02/26 01:53:57;;;;;;;4.43;2.42;;;;;;;;;;5082212;28;20083;-58
2024/02/26 01:56:30;;;;;;;3.15;1.90;;;;;;;;;;5087633;28;20050;-60
2024/02/26 01:58:59;;;;;;;3.50;2.25;;;;;;;;;;5073689;28;20216;-59
2024/02/26 02:01:28;;;;;;;2.95;2.08;;;;;;;;;;5077216;28;20390;-60
2024/02/26 02:03:59;;;;;;;3.65;2.53;;;;;;;;;;5077451;28;20131;-63
2024/02/26 02:06:28;;;;;;;2.30;1.92;;;;;;;;;;5078341;28;20065;-59
2024/02/26 02:09:00;;;;;;;2.22;1.90;;;;;;;;;;5076488;28;20188;-61
2024/02/26 02:11:29;;;;;;;3.65;2.38;;;;;;;;;;5076618;28;20048;-59
2024/02/26 02:13:58;;;;;;;2.30;2.10;;;;;;;;;;5076593;28;20053;-61
2024/02/26 02:16:26;;;;;;;2.95;2.15;;;;;;;;;;5081419;28;20036;-60
2024/02/26 02:18:54;;;;;;;2.92;2.22;;;;;;;;;;5081905;28;20047;-60
2024/02/26 02:21:24;;;;;;;2.80;2.10;;;;;;;;;;5086247;28;20535;-59
2024/02/26 02:23:52;;;;;;;4.68;2.25;;;;;;;;;;5081617;28;20060;-61
2024/02/26 02:26:22;;;;;;;5.70;2.83;;;;;;;;;;5081952;28;20062;-61
2024/02/26 02:28:50;;;;;;;2.25;1.98;;;;;;;;;;5081953;28;20048;-61
2024/02/26 02:31:18;;;;;;;2.65;2.03;;;;;;;;;;5082623;28;20126;-58
2024/02/26 02:33:47;;;;;;;4.38;2.13;;;;;;;;;;5079519;28;20079;-60
2024/02/26 02:36:15;;;;;;;3.17;2.10;;;;;;;;;;5081154;28;20052;-59
2024/02/26 02:38:51;;;;;;;2.45;2.00;;;;;;;;;;5080267;28;20059;-60
2024/02/26 02:41:20;;;;;;;5.22;2.30;;;;;;;;;;5082736;28;20103;-60
2024/02/26 02:43:48;;;;;;;2.63;2.03;;;;;;;;;;5082665;28;20062;-60
2024/02/26 02:46:16;;;;;;;3.15;2.40;;;;;;;;;;5082956;28;20052;-60
2024/02/26 02:48:45;;;;;;;4.43;2.15;;;;;;;;;;5084365;28;20101;-59
2024/02/26 02:51:14;;;;;;;3.67;1.98;;;;;;;;;;5079340;28;20421;-61
2024/02/26 02:53:42;;;;;;;2.63;1.98;;;;;;;;;;5080395;28;20059;-60
2024/02/26 02:56:12;;;;;;;2.63;2.08;;;;;;;;;;5077908;28;20040;-63
2024/02/26 02:58:40;;;;;;;3.72;2.10;;;;;;;;;;5080219;28;20052;-64
2024/02/26 03:01:09;;;;;;;4.03;2.17;;;;;;;;;;5080536;28;20110;-58
2024/02/26 03:03:37;;;;;;;4.88;2.28;;;;;;;;;;5079627;28;20062;-60
2024/02/26 03:06:06;;;;;;;4.78;2.00;;;;;;;;;;5079653;28;20071;-63
2024/02/26 03:08:37;;;;;;;4.43;2.33;;;;;;;;;;5081505;28;20479;-60
2024/02/26 03:11:06;;;;;;;3.00;2.00;;;;;;;;;;5081046;28;20083;-58
2024/02/26 03:13:36;;;;;;;2.95;2.10;;;;;;;;;;5077718;28;20048;-62
2024/02/26 03:16:06;;;;;;;2.25;2.00;;;;;;;;;;5080730;28;20382;-60
2024/02/26 03:18:35;;;;;;;2.03;1.75;;;;;;;;;;5082094;28;20048;-59
2024/02/26 03:21:04;;;;;;;3.10;2.20;;;;;;;;;;5088508;28;20382;-59
2024/02/26 03:23:36;;;;;;;2.38;2.10;;;;;;;;;;5085798;28;20052;-60
2024/02/26 03:26:04;;;;;;;3.42;2.30;;;;;;;;;;5086760;28;20469;-60
2024/02/26 03:28:33;;;;;;;4.10;2.33;;;;;;;;;;5083999;28;20088;-62
2024/02/26 03:31:03;;;;;;;3.25;2.28;;;;;;;;;;5084797;28;20497;-59
2024/02/26 03:33:31;;;;;;;2.65;1.98;;;;;;;;;;5084196;28;20132;-60
2024/02/26 03:36:00;;;;;;;3.78;2.58;;;;;;;;;;5083550;28;20040;-61
2024/02/26 03:38:28;;;;;;;4.03;2.65;;;;;;;;;;5082628;28;20453;-60
2024/02/26 03:40:57;;;;;;;3.30;2.15;;;;;;;;;;5083719;28;20191;-60
2024/02/26 03:43:25;;;;;;;5.53;1.70;;;;;;;;;;5084595;28;20450;-58
2024/02/26 03:45:53;;;;;;;3.28;2.50;;;;;;;;;;5084776;28;20124;-60
2024/02/26 03:48:23;;;;;;;2.38;1.70;;;;;;;;;;5085288;28;20040;-59
2024/02/26 03:50:52;;;;;;;2.55;1.60;;;;;;;;;;5082198;28;20058;-61
2024/02/26 03:53:20;;;;;;;1.92;1.73;;;;;;;;;;5085365;28;20089;-60
2024/02/26 03:55:49;;;;;;;2.40;1.90;;;;;;;;;;5081763;28;20040;-59
2024/02/26 03:58:17;;;;;;;2.83;2.05;;;;;;;;;;5080996;28;20131;-59
2024/02/26 04:00:47;;;;;;;2.90;1.88;;;;;;;;;;5078250;28;20512;-63
2024/02/26 04:03:16;;;;;;;4.18;2.03;;;;;;;;;;5078914;28;20608;-62
2024/02/26 04:05:46;;;;;;;2.28;2.03;;;;;;;;;;5080626;28;20052;-61
2024/02/26 04:08:14;;;;;;;1.98;1.42;;;;;;;;;;5077560;28;20052;-61
2024/02/26 04:10:43;;;;;;;4.22;1.90;;;;;;;;;;5082388;28;20040;-59
2024/02/26 04:13:11;;;;;;;3.45;1.85;;;;;;;;;;5079009;28;20062;-59
2024/02/26 04:15:39;;;;;;;2.58;2.05;;;;;;;;;;5079398;28;20131;-60
2024/02/26 04:18:08;;;;;;;3.72;1.77;;;;;;;;;;5078024;28;20056;-62
2024/02/26 04:20:36;;;;;;;2.63;1.95;;;;;;;;;;5091667;28;20048;-60
2024/02/26 04:23:06;;;;;;;3.35;2.33;;;;;;;;;;5078975;28;20043;-61
2024/02/26 04:25:35;;;;;;;2.25;2.00;;;;;;;;;;5081821;28;20055;-61
2024/02/26 04:28:03;;;;;;;2.00;1.77;;;;;;;;;;5082902;28;20140;-60
2024/02/26 04:30:31;;;;;;;4.28;1.70;;;;;;;;;;5083491;28;20052;-60
2024/02/26 04:33:00;;;;;;;4.40;2.00;;;;;;;;;;5084315;28;20044;-62
2024/02/26 04:35:28;;;;;;;4.28;2.00;;;;;;;;;;5084863;28;20558;-58
2024/02/26 04:37:57;;;;;;;3.83;1.70;;;;;;;;;;5084771;28;20463;-59
2024/02/26 04:40:27;;;;;;;2.95;1.92;;;;;;;;;;5087244;28;20051;-61
2024/02/26 04:42:56;;;;;;;2.70;1.98;;;;;;;;;;5083529;28;20044;-60
2024/02/26 04:45:24;;;;;;;2.70;1.92;;;;;;;;;;5083818;28;20469;-59
2024/02/26 04:47:52;;;;;;;2.53;1.73;;;;;;;;;;5083919;28;20044;-59
2024/02/26 04:50:21;;;;;;;2.72;1.92;;;;;;;;;;5085867;28;20123;-59
2024/02/26 04:52:49;;;;;;;1.70;1.58;;;;;;;;;;5083196;28;20040;-62
2024/02/26 04:55:18;;;;;;;1.90;1.67;;;;;;;;;;5083472;28;20105;-59
2024/02/26 04:57:47;;;;;;;3.08;1.80;;;;;;;;;;5083795;28;20458;-64
2024/02/26 05:00:16;;;;;;;2.13;1.83;;;;;;;;;;5081395;28;20131;-59
2024/02/26 05:02:44;;;;;;;2.15;1.80;;;;;;;;;;5079922;28;20429;-63
2024/02/26 05:05:14;;;;;;;3.50;1.83;;;;;;;;;;5078636;28;20040;-60
2024/02/26 05:07:43;;;;;;;3.35;1.83;;;;;;;;;;5075254;28;20457;-60
2024/02/26 05:10:11;;;;;;;2.40;2.00;;;;;;;;;;5076390;28;20580;-64
2024/02/26 05:12:42;;;;;;;2.33;1.70;;;;;;;;;;5081083;28;20127;-60
2024/02/26 05:15:17;;;;;;;1.50;1.35;;;;;;;;;;5078023;28;20051;-60
2024/02/26 05:17:46;;;;;;;3.05;1.75;;;;;;;;;;5086327;28;20457;-59
2024/02/26 05:20:15;;;;;;;2.78;1.58;;;;;;;;;;5075559;28;20668;-60
2024/02/26 05:22:43;;;;;;;3.30;1.70;;;;;;;;;;5077201;28;20044;-60
2024/02/26 05:25:12;;;;;;;3.08;1.65;;;;;;;;;;5076339;28;20048;-59
2024/02/26 05:27:40;;;;;;;1.98;1.50;;;;;;;;;;5083378;28;20048;-59
2024/02/26 05:30:09;;;;;;;1.65;1.45;;;;;;;;;;5081740;28;20135;-59
2024/02/26 05:32:39;;;;;;;1.45;1.35;;;;;;;;;;5084500;28;20492;-62
2024/02/26 05:35:08;;;;;;;2.03;1.52;;;;;;;;;;5080091;28;20548;-65
2024/02/26 05:37:37;;;;;;;1.15;1.08;;;;;;;;;;5080819;28;20044;-60
2024/02/26 05:40:06;;;;;;;1.70;1.20;;;;;;;;;;5085981;28;20039;-59
2024/02/26 05:42:34;;;;;;;2.08;1.50;;;;;;;;;;5084887;28;20422;-59
2024/02/26 05:45:05;;;;;;;2.20;1.50;;;;;;;;;;5086005;28;20047;-59
2024/02/26 05:47:34;;;;;;;2.20;1.50;;;;;;;;;;5081731;28;20052;-59
2024/02/26 05:50:04;;;;;;;2.63;1.60;;;;;;;;;;5085182;28;20044;-59
2024/02/26 05:52:33;;;;;;;1.98;1.35;;;;;;;;;;5082555;28;20156;-59
2024/02/26 05:55:01;;;;;;;1.85;1.48;;;;;;;;;;5083477;28;20040;-62
2024/02/26 05:57:29;;;;;;;1.95;1.77;;;;;;;;;;5081504;28;20170;-61
2024/02/26 06:00:00;;;;;;;1.63;1.50;;;;;;;;;;5082690;28;20047;-59
2024/02/26 06:02:29;;;;;;;2.35;1.70;;;;;;;;;;5079369;28;20048;-59
2024/02/26 06:04:57;;;;;;;2.92;1.90;;;;;;;;;;5074210;28;20140;-60
2024/02/26 06:07:27;;;;;;;1.73;1.40;;;;;;;;;;5080736;28;20052;-62
2024/02/26 06:09:55;;;;;;;2.10;1.60;;;;;;;;;;5086015;28;20145;-62
2024/02/26 06:12:24;;;;;;;4.53;1.70;;;;;;;;;;5085160;28;20449;-59
2024/02/26 06:14:52;;;;;;;1.55;1.45;;;;;;;;;;5084063;28;20044;-60
2024/02/26 06:17:21;;;;;;;3.35;1.48;;;;;;;;;;5090329;28;20047;-62
2024/02/26 06:19:49;;;;;;;3.28;1.38;;;;;;;;;;5088640;28;20052;-62
2024/02/26 06:22:17;;;;;;;1.63;1.52;;;;;;;;;;5087511;28;20454;-62
2024/02/26 06:24:47;;;;;;;2.70;1.58;;;;;;;;;;5084179;28;20116;-62
2024/02/26 06:27:16;;;;;;;1.40;1.30;;;;;;;;;;5088870;28;20047;-59
2024/02/26 06:29:44;;;;;;;3.20;1.45;;;;;;;;;;5086204;28;20447;-61
2024/02/26 06:32:12;;;;;;;2.30;1.73;;;;;;;;;;5088343;28;20052;-61
2024/02/26 06:34:41;;;;;;;1.52;1.42;;;;;;;;;;5098464;28;20491;-62
2024/02/26 06:37:10;;;;;;;1.77;1.48;;;;;;;;;;5092698;28;20475;-60
2024/02/26 06:39:39;;;;;;;2.80;1.50;;;;;;;;;;5094318;28;20108;-60
2024/02/26 06:42:08;;;;;;;1.42;1.30;;;;;;;;;;5099634;28;20451;-60
2024/02/26 06:44:37;;;;;;;4.30;1.55;;;;;;;;;;5099303;28;20048;-61
2024/02/26 06:47:05;;;;;;;2.20;1.70;;;;;;;;;;5092881;28;20122;-60
2024/02/26 06:49:34;;;;;;;2.47;2.10;;;;;;;;;;5095863;28;20056;-61
2024/02/26 06:52:02;;;;;;;2.40;1.77;;;;;;;;;;5093809;28;20052;-61
2024/02/26 06:54:31;;;;;;;2.50;1.95;;;;;;;;;;5099349;28;20048;-60
2024/02/26 06:56:59;;;;;;;3.70;2.13;;;;;;;;;;5098028;28;20379;-60
2024/02/26 06:59:29;;;;;;;2.15;1.73;;;;;;;;;;5097959;28;20117;-61
2024/02/26 07:01:57;;;;;;;5.20;1.90;;;;;;;;;;5103286;28;20504;-62
2024/02/26 07:04:26;;;;;;;2.83;1.98;;;;;;;;;;5094753;28;20048;-59
2024/02/26 07:06:54;;;;;;;5.05;1.92;;;;;;;;;;5093836;28;20052;-61
2024/02/26 07:09:23;;;;;;;2.42;1.88;;;;;;;;;;5098017;28;20131;-62
2024/02/26 07:11:51;;;;;;;1.95;1.30;;;;;;;;;;5091897;28;20055;-61
2024/02/26 07:14:20;;;;;;;2.75;1.90;;;;;;;;;;5099251;28;20048;-60
2024/02/26 07:16:50;;;;;;;4.68;1.60;;;;;;;;;;5091743;28;20052;-60
2024/02/26 07:19:18;;;;;;;5.28;1.98;;;;;;;;;;5082542;28;20496;-65
2024/02/26 07:21:47;;;;;;;2.63;1.90;;;;;;;;;;5091442;28;20402;-61
2024/02/26 07:24:15;;;;;;;6.43;1.70;;;;;;;;;;5092008;28;20553;-61
2024/02/26 07:26:43;;;;;;;4.68;1.92;;;;;;;;;;5091088;28;20048;-64
2024/02/26 07:29:12;;;;;;;2.70;1.73;;;;;;;;;;5081388;28;20052;-60
2024/02/26 07:31:40;;;;;;;2.03;1.67;;;;;;;;;;5086619;28;20052;-59
2024/02/26 07:34:10;;;;;;;9.00;2.72;;;;;;;;;;5091454;28;20120;-60
2024/02/26 07:36:39;;;;;;;2.95;2.10;;;;;;;;;;5089906;28;20058;-61
2024/02/26 07:39:07;;;;;;;3.58;2.30;;;;;;;;;;5096790;28;20043;-60
2024/02/26 07:41:38;;;;;;;4.45;2.63;;;;;;;;;;5091857;28;20051;-59
2024/02/26 07:44:06;;;;;;;4.78;2.08;;;;;;;;;;5091223;28;20539;-59
2024/02/26 07:46:35;;;;;;;3.70;1.70;;;;;;;;;;5090565;28;20082;-61
2024/02/26 07:49:03;;;;;;;3.15;2.00;;;;;;;;;;5089988;28;20051;-61
2024/02/26 07:51:33;;;;;;;3.28;2.03;;;;;;;;;;5084365;28;20052;-61
2024/02/26 07:54:03;;;;;;;2.35;1.60;;;;;;;;;;5091061;28;20097;-59
2024/02/26 07:56:32;;;;;;;3.63;2.08;;;;;;;;;;5092052;28;20050;-60
2024/02/26 07:59:00;;;;;;;2.13;1.50;;;;;;;;;;5089246;28;20132;-61
2024/02/26 08:01:28;;;;;;;2.53;1.77;;;;;;;;;;5089975;28;20044;-61
2024/02/26 08:03:58;;;;;;;3.78;2.08;;;;;;;;;;5088216;28;20148;-60
2024/02/26 08:06:27;;;;;;;2.47;1.70;;;;;;;;;;5089900;28;20059;-61
2024/02/26 08:08:57;;;;;;;2.13;1.63;;;;;;;;;;5089648;28;20358;-59
2024/02/26 08:11:25;;;;;;;2.55;1.90;;;;;;;;;;5090450;28;20485;-61
2024/02/26 08:13:53;;;;;;;2.35;1.75;;;;;;;;;;5088625;28;20094;-60
2024/02/26 08:16:22;;;;;;;3.22;1.92;;;;;;;;;;5090418;28;20056;-62
2024/02/26 08:18:50;;;;;;;3.20;2.00;;;;;;;;;;5088274;28;20553;-60
2024/02/26 08:21:19;;;;;;;2.88;2.00;;;;;;;;;;5086300;28;20049;-60
2024/02/26 08:23:47;;;;;;;5.07;1.90;;;;;;;;;;5087797;28;20425;-62
2024/02/26 08:26:17;;;;;;;2.75;1.60;;;;;;;;;;5089945;28;20047;-61
2024/02/26 08:28:47;;;;;;;4.22;1.70;;;;;;;;;;5086841;28;20056;-61
2024/02/26 08:31:15;;;;;;;2.22;1.70;;;;;;;;;;5097275;28;20695;-60
2024/02/26 08:33:44;;;;;;;3.88;1.70;;;;;;;;;;5090015;28;20441;-61
2024/02/26 08:36:13;;;;;;;1.33;1.23;;;;;;;;;;5089925;28;20051;-62
2024/02/26 08:38:42;;;;;;;3.65;1.50;;;;;;;;;;5075864;28;20521;-62
2024/02/26 08:41:10;;;;;;;2.33;1.70;;;;;;;;;;5086879;28;20093;-61
2024/02/26 08:43:40;;;;;;;1.40;1.30;;;;;;;;;;5084640;28;20040;-64
2024/02/26 08:46:10;;;;;;;1.90;1.38;;;;;;;;;;5087976;28;20056;-59
2024/02/26 08:48:40;;;;;;;1.60;1.50;;;;;;;;;;5086748;28;20164;-61
2024/02/26 08:51:09;;;;;;;1.90;1.40;;;;;;;;;;5089293;28;20040;-63
2024/02/26 08:53:38;;;;;;;4.53;1.63;;;;;;;;;;5088608;28;20127;-61
2024/02/26 08:56:16;;;;;;;2.45;1.58;;;;;;;;;;5089436;28;20125;-60
2024/02/26 08:58:48;;;;;;;4.50;1.52;;;;;;;;;;5087877;28;20385;-60
2024/02/26 09:01:17;;;;;;;2.22;1.60;;;;;;;;;;5088933;28;20076;-62
2024/02/26 09:03:46;;;;;;;2.30;1.80;;;;;;;;;;5088674;28;20044;-61
2024/02/26 09:06:16;;;;;;;2.15;1.70;;;;;;;;;;5089071;28;20125;-60
2024/02/26 09:08:45;;;;;;;3.08;1.52;;;;;;;;;;5083764;28;20463;-60
2024/02/26 09:11:13;;;;;;;1.63;1.38;;;;;;;;;;5086869;28;20070;-63
2024/02/26 09:13:42;;;;;;;1.98;1.58;;;;;;;;;;5089386;28;20052;-62
2024/02/26 09:16:13;;;;;;;4.78;1.90;;;;;;;;;;5088892;28;20047;-61
2024/02/26 09:18:42;;;;;;;2.78;1.60;;;;;;;;;;5087866;28;20056;-61
2024/02/26 09:21:10;;;;;;;2.85;1.63;;;;;;;;;;5089775;28;20036;-60
2024/02/26 09:23:39;;;;;;;1.90;1.40;;;;;;;;;;5087310;28;20516;-61
2024/02/26 09:26:07;;;;;;;2.58;1.55;;;;;;;;;;5084735;28;20040;-62
2024/02/26 09:28:37;;;;;;;2.05;1.70;;;;;;;;;;5083308;28;20040;-61
2024/02/26 09:31:06;;;;;;;3.45;1.45;;;;;;;;;;5089308;28;20555;-62
2024/02/26 09:33:36;;;;;;;3.80;1.40;;;;;;;;;;5088360;28;20082;-60
2024/02/26 09:36:06;;;;;;;2.58;1.55;;;;;;;;;;5088697;28;20131;-61
2024/02/26 09:38:37;;;;;;;3.15;1.77;;;;;;;;;;5086293;28;20074;-64
2024/02/26 09:41:23;;;;;;;2.83;1.73;;;;;;;;;;5087393;28;20040;-61
2024/02/26 09:43:53;;;;;;;5.63;1.92;;;;;;;;;;5089158;28;20044;-60
2024/02/26 09:46:21;;;;;;;3.15;1.73;;;;;;;;;;5086720;28;20048;-63
2024/02/26 09:48:51;;;;;;;2.83;1.73;;;;;;;;;;5079663;28;20101;-61
2024/02/26 09:51:20;;;;;;;3.88;1.50;;;;;;;;;;5086464;28;20147;-61
2024/02/26 09:53:50;;;;;;;2.38;1.50;;;;;;;;;;5088238;28;20048;-61
2024/02/26 09:56:18;;;;;;;4.18;1.77;;;;;;;;;;5089282;28;20071;-60
2024/02/26 09:58:51;;;;;;;2.78;1.63;;;;;;;;;;5084237;28;20500;-63
2024/02/26 10:01:20;;;;;;;1.85;1.50;;;;;;;;;;5088571;28;20048;-62
2024/02/26 10:03:50;;;;;;;2.13;1.73;;;;;;;;;;5089037;28;20048;-61
2024/02/26 10:06:19;;;;;;;2.08;1.77;;;;;;;;;;5088974;28;20097;-62
2024/02/26 10:08:49;;;;;;;6.28;1.70;;;;;;;;;;5070863;28;20048;-64
2024/02/26 10:11:17;;;;;;;4.55;2.05;;;;;;;;;;5077232;28;20075;-62
2024/02/26 10:13:46;;;;;;;4.60;1.85;;;;;;;;;;5069547;28;20052;-62
2024/02/26 10:16:15;;;;;;;1.90;1.70;;;;;;;;;;5089419;28;20052;-65
2024/02/26 10:18:49;;;;;;;2.50;1.48;;;;;;;;;;5073577;28;20060;-62
2024/02/26 10:21:28;;;;;;;3.00;1.67;;;;;;;;;;5069461;28;20048;-60
2024/02/26 10:23:57;;;;;;;3.42;1.80;;;;;;;;;;5071053;28;20121;-62
2024/02/26 10:26:25;;;;;;;2.00;1.60;;;;;;;;;;5070439;28;20468;-62
2024/02/26 10:28:54;;;;;;;3.03;1.52;;;;;;;;;;5069687;28;20044;-61
2024/02/26 10:31:23;;;;;;;1.95;1.70;;;;;;;;;;5082934;28;20048;-61
2024/02/26 10:33:51;;;;;;;1.60;1.15;;;;;;;;;;5068731;28;20079;-60
2024/02/26 10:36:20;;;;;;;2.03;1.40;;;;;;;;;;5081347;28;20098;-60
2024/02/26 10:38:50;;;;;;;2.05;1.20;;;;;;;;;;5067192;28;20513;-63
2024/02/26 10:41:21;;;;;;;1.80;1.10;;;;;;;;;;5081451;28;20053;-61
2024/02/26 10:43:51;;;;;;;1.55;1.05;;;;;;;;;;5071628;28;20078;-60
2024/02/26 10:46:21;;;;;;;1.42;1.00;;;;;;;;;;5068917;28;20055;-60
2024/02/26 10:48:51;;;;;;;1.92;1.00;;;;;;;;;;5067746;28;20129;-63
2024/02/26 10:51:22;;;;;;;2.65;1.02;;;;;;;;;;5086136;28;20147;-65
2024/02/26 10:53:54;;;;;;;1.17;1.00;;;;;;;;;;5069707;28;20048;-61
2024/02/26 10:56:27;;;;;;;0.70;0.70;;;;;;;;;;5067319;28;20095;-60
2024/02/26 10:58:56;;;;;;;1.83;1.10;;;;;;;;;;5066676;28;20048;-61
2024/02/26 11:01:25;;;;;;;1.02;0.80;;;;;;;;;;5067116;28;20478;-65
2024/02/26 11:03:54;;;;;;;2.00;1.17;;;;;;;;;;5065281;28;20428;-63
2024/02/26 11:06:23;;;;;;;0.90;0.80;;;;;;;;;;5070472;28;20043;-61
2024/02/26 11:08:54;;;;;;;1.55;1.20;;;;;;;;;;5071459;28;20052;-61
2024/02/26 11:11:23;;;;;;;0.82;0.82;;;;;;;;;;5073548;28;20136;-63
2024/02/26 11:13:52;;;;;;;0.93;0.85;;;;;;;;;;5086673;28;20113;-61
2024/02/26 11:16:22;;;;;;;1.10;0.85;;;;;;;;;;5069009;28;20480;-62
2024/02/26 11:18:51;;;;;;;1.23;1.02;;;;;;;;;;5067162;28;20060;-61
2024/02/26 11:21:27;;;;;;;1.00;0.90;;;;;;;;;;5071240;28;20052;-61
2024/02/26 11:23:58;;;;;;;1.77;1.48;;;;;;;;;;5074941;28;20128;-61
2024/02/26 11:26:28;;;;;;;1.10;0.88;;;;;;;;;;5059546;28;20458;-62
2024/02/26 11:28:57;;;;;;;1.63;1.00;;;;;;;;;;5076991;28;20056;-61
2024/02/26 11:31:27;;;;;;;2.00;1.10;;;;;;;;;;5065260;28;20460;-62
2024/02/26 11:33:56;;;;;;;4.25;1.13;;;;;;;;;;5070690;28;20525;-60
2024/02/26 11:36:26;;;;;;;1.33;1.00;;;;;;;;;;5062357;28;20061;-62
2024/02/26 11:38:54;;;;;;;1.42;0.90;;;;;;;;;;5071318;28;20040;-61
2024/02/26 11:41:24;;;;;;;3.67;0.93;;;;;;;;;;5076279;28;20340;-61
2024/02/26 11:43:53;;;;;;;0.90;0.80;;;;;;;;;;5075304;28;20044;-62
2024/02/26 11:46:29;;;;;;;1.23;0.90;;;;;;;;;;5079057;28;20524;-61
2024/02/26 11:48:58;;;;;;;1.08;0.90;;;;;;;;;;5069898;28;20045;-62
2024/02/26 11:51:27;;;;;;;1.75;1.00;;;;;;;;;;5069935;28;20049;-63
2024/02/26 11:53:58;;;;;;;0.98;0.80;;;;;;;;;;5069282;28;20114;-62
2024/02/26 11:56:29;;;;;;;1.63;1.00;;;;;;;;;;5070394;28;20080;-62
2024/02/26 11:59:01;;;;;;;1.90;0.90;;;;;;;;;;5072367;28;20130;-62
2024/02/26 12:01:47;;;;;;;1.48;1.13;;;;;;;;;;5071768;28;20044;-62
2024/02/26 12:04:20;;;;;;;2.08;1.10;;;;;;;;;;5071292;28;20480;-65
2024/02/26 12:06:51;;;;;;;1.40;0.90;;;;;;;;;;5081527;28;20055;-62
2024/02/26 12:09:32;;;;;;;1.33;0.77;;;;;;;;;;5093558;28;20043;-62
2024/02/26 12:12:03;;;;;;;1.38;0.98;;;;;;;;;;5099022;28;20044;-62
2024/02/26 12:14:31;;;;;;;3.33;0.98;;;;;;;;;;5096140;28;20507;-62
2024/02/26 12:17:00;;;;;;;1.05;0.95;;;;;;;;;;5095277;28;20123;-61
2024/02/26 12:19:29;;;;;;;0.90;0.80;;;;;;;;;;5090964;28;20048;-62
2024/02/26 12:21:57;;;;;;;1.88;1.20;;;;;;;;;;5094028;28;20527;-62
2024/02/26 12:24:25;;;;;;;4.20;1.00;;;;;;;;;;5090892;28;20044;-65
2024/02/26 12:26:54;;;;;;;2.47;1.13;;;;;;;;;;5085420;28;20602;-64
2024/02/26 12:29:24;;;;;;;2.30;1.00;;;;;;;;;;5089056;28;20055;-61
2024/02/26 12:31:52;;;;;;;1.33;1.00;;;;;;;;;;5100002;28;20098;-62
2024/02/26 12:34:21;;;;;;;1.00;0.90;;;;;;;;;;5095684;28;20545;-61
2024/02/26 12:36:49;;;;;;;1.45;1.30;;;;;;;;;;5079600;28;20057;-65
2024/02/26 12:39:20;;;;;;;1.08;0.98;;;;;;;;;;5088707;28;20424;-64
2024/02/26 12:41:49;;;;;;;1.42;1.10;;;;;;;;;;5088870;28;20052;-62
2024/02/26 12:44:18;;;;;;;1.70;1.17;;;;;;;;;;5090738;28;20505;-62
2024/02/26 12:46:47;;;;;;;1.08;0.98;;;;;;;;;;5090473;28;20405;-62
2024/02/26 12:49:17;;;;;;;1.40;1.27;;;;;;;;;;5083519;28;20176;-63
2024/02/26 12:51:46;;;;;;;1.17;1.08;;;;;;;;;;5090008;28;20369;-61
2024/02/26 12:54:15;;;;;;;1.42;1.27;;;;;;;;;;5087592;28;20110;-64
2024/02/26 12:56:43;;;;;;;1.88;1.42;;;;;;;;;;5089999;28;20052;-62
2024/02/26 12:59:12;;;;;;;2.10;1.40;;;;;;;;;;5088981;28;20044;-65
2024/02/26 13:01:40;;;;;;;1.38;1.27;;;;;;;;;;5090128;28;20036;-70
2024/02/26 13:04:10;;;;;;;1.50;1.35;;;;;;;;;;5085851;28;20146;-66
2024/02/26 13:06:39;;;;;;;3.13;1.65;;;;;;;;;;5084306;28;20044;-68
2024/02/26 13:09:09;;;;;;;2.78;1.65;;;;;;;;;;5090857;28;20112;-66
2024/02/26 13:11:38;;;;;;;1.45;1.25;;;;;;;;;;5086463;28;20097;-65
2024/02/26 13:14:06;;;;;;;3.25;1.20;;;;;;;;;;5083617;28;20072;-66
2024/02/26 13:16:36;;;;;;;1.30;1.20;;;;;;;;;;5088700;28;20046;-66
2024/02/26 13:19:11;;;;;;;1.33;1.02;;;;;;;;;;5087767;28;20500;-64
2024/02/26 13:21:39;;;;;;;1.25;1.10;;;;;;;;;;5089870;28;20036;-65
2024/02/26 13:24:08;;;;;;;1.10;0.93;;;;;;;;;;5097095;28;20052;-68
2024/02/26 13:26:36;;;;;;;1.00;0.80;;;;;;;;;;5088445;28;20129;-66
2024/02/26 13:29:05;;;;;;;1.20;0.80;;;;;;;;;;5087357;28;20485;-65
2024/02/26 13:31:40;;;;;;;0.88;0.70;;;;;;;;;;5090005;28;20404;-64
2024/02/26 13:34:24;;;;;;;1.20;0.60;;;;;;;;;;5097075;28;20142;-66
2024/02/26 13:36:53;;;;;;;1.05;0.60;;;;;;;;;;5089078;28;20052;-65
2024/02/26 13:39:24;;;;;;;0.85;0.63;;;;;;;;;;5087708;28;20039;-64
2024/02/26 13:41:54;;;;;;;1.13;0.82;;;;;;;;;;5088842;28;20127;-63
2024/02/26 13:44:22;;;;;;;0.60;0.60;;;;;;;;;;5089240;28;20079;-63
2024/02/26 13:46:51;;;;;;;1.05;0.70;;;;;;;;;;5089468;28;20044;-64
2024/02/26 13:49:21;;;;;;;0.90;0.70;;;;;;;;;;5087345;28;20044;-64
2024/02/26 13:51:49;;;;;;;1.15;0.90;;;;;;;;;;5087002;28;20055;-64
2024/02/26 13:54:18;;;;;;;1.20;0.75;;;;;;;;;;5083078;28;20048;-64
2024/02/26 13:56:46;;;;;;;1.17;0.90;;;;;;;;;;5087573;28;20549;-63
2024/02/26 13:59:16;;;;;;;3.20;0.98;;;;;;;;;;5085835;28;20063;-67
2024/02/26 14:01:44;;;;;;;1.10;0.80;;;;;;;;;;5086795;28;20216;-67
2024/02/26 14:04:13;;;;;;;2.65;0.80;;;;;;;;;;5086820;28;20048;-65
2024/02/26 14:06:43;;;;;;;1.15;0.90;;;;;;;;;;5086170;28;20402;-62
2024/02/26 14:09:18;;;;;;;1.02;0.80;;;;;;;;;;5074072;28;20484;-65
2024/02/26 14:11:47;;;;;;;1.15;0.90;;;;;;;;;;5069098;28;20083;-72
2024/02/26 14:14:15;;;;;;;1.83;1.20;;;;;;;;;;5064510;28;20125;-66
2024/02/26 14:16:43;;;;;;;2.05;1.10;;;;;;;;;;5071855;28;20421;-64
2024/02/26 14:19:12;;;;;;;1.77;0.90;;;;;;;;;;5083388;28;20052;-65
2024/02/26 14:21:45;;;;;;;0.85;0.85;;;;;;;;;;5078605;28;20055;-63
2024/02/26 14:24:13;;;;;;;1.73;0.95;;;;;;;;;;5066243;28;20505;-64
2024/02/26 14:26:42;;;;;;;0.93;0.82;;;;;;;;;;5077682;28;20144;-66
2024/02/26 14:29:10;;;;;;;0.82;0.80;;;;;;;;;;5072930;28;20060;-68
2024/02/26 14:31:38;;;;;;;2.38;0.90;;;;;;;;;;5069474;28;20109;-64
2024/02/26 14:34:08;;;;;;;1.05;0.95;;;;;;;;;;5084220;28;20142;-65
2024/02/26 14:36:37;;;;;;;1.60;1.08;;;;;;;;;;5074248;28;20044;-67
2024/02/26 14:39:06;;;;;;;1.05;0.82;;;;;;;;;;5068362;28;20053;-65
2024/02/26 14:41:35;;;;;;;1.58;1.00;;;;;;;;;;5068862;28;20315;-63
2024/02/26 14:44:03;;;;;;;2.85;0.90;;;;;;;;;;5069807;28;20105;-65
2024/02/26 14:46:32;;;;;;;1.70;1.00;;;;;;;;;;5078318;28;20049;-63
2024/02/26 14:49:00;;;;;;;1.02;0.85;;;;;;;;;;5078839;28;20063;-64
2024/02/26 14:51:29;;;;;;;1.10;1.00;;;;;;;;;;5073993;28;20051;-64
2024/02/26 14:53:59;;;;;;;1.38;1.00;;;;;;;;;;5074445;28;20048;-63
2024/02/26 14:56:29;;;;;;;1.50;0.85;;;;;;;;;;5075132;28;20108;-63